Metar z połowy godziny Komunikat METAR ze strony awiacja.imgw.pl Metar G30 EPDA METAR EPDA 240630Z 12012KT 9999 FEW081 BKN114 BKN158 13/02 Q1012 RMK 134 045 7/1=